sensor_id;sensor_type;location;lat;lon;timestamp;P1;durP1;ratioP1;P2;durP2;ratioP2
10383;SDS011;5238;43.508;4.980;2023-02-14T00:01:15;35.90;;;27.75;;
10383;SDS011;5238;43.508;4.980;2023-02-14T00:03:45;36.42;;;27.27;;
10383;SDS011;5238;43.508;4.980;2023-02-14T00:06:13;35.97;;;27.95;;
10383;SDS011;5238;43.508;4.980;2023-02-14T00:08:41;35.28;;;27.85;;
10383;SDS011;5238;43.508;4.980;2023-02-14T00:11:10;35.42;;;26.42;;
10383;SDS011;5238;43.508;4.980;2023-02-14T00:13:40;35.17;;;27.23;;
10383;SDS011;5238;43.508;4.980;2023-02-14T00:16:29;34.53;;;26.60;;
10383;SDS011;5238;43.508;4.980;2023-02-14T00:18:55;36.58;;;27.55;;
10383;SDS011;5238;43.508;4.980;2023-02-14T00:21:31;35.17;;;27.20;;
10383;SDS011;5238;43.508;4.980;2023-02-14T00:24:00;39.60;;;27.75;;
10383;SDS011;5238;43.508;4.980;2023-02-14T00:26:27;35.53;;;27.38;;
10383;SDS011;5238;43.508;4.980;2023-02-14T00:28:54;34.95;;;28.15;;
10383;SDS011;5238;43.508;4.980;2023-02-14T00:31:22;37.13;;;28.08;;
10383;SDS011;5238;43.508;4.980;2023-02-14T00:33:51;32.83;;;26.70;;
10383;SDS011;5238;43.508;4.980;2023-02-14T00:36:19;34.60;;;26.88;;
10383;SDS011;5238;43.508;4.980;2023-02-14T00:38:46;37.53;;;28.25;;
10383;SDS011;5238;43.508;4.980;2023-02-14T00:41:15;38.15;;;29.40;;
10383;SDS011;5238;43.508;4.980;2023-02-14T00:43:44;36.53;;;26.88;;
10383;SDS011;5238;43.508;4.980;2023-02-14T00:46:12;35.20;;;26.70;;
10383;SDS011;5238;43.508;4.980;2023-02-14T00:48:40;34.97;;;28.05;;
10383;SDS011;5238;43.508;4.980;2023-02-14T00:51:08;39.85;;;29.58;;
10383;SDS011;5238;43.508;4.980;2023-02-14T00:53:36;36.15;;;27.95;;
10383;SDS011;5238;43.508;4.980;2023-02-14T00:56:05;37.30;;;26.92;;
10383;SDS011;5238;43.508;4.980;2023-02-14T00:58:33;36.72;;;28.08;;
10383;SDS011;5238;43.508;4.980;2023-02-14T01:01:00;36.05;;;27.85;;
10383;SDS011;5238;43.508;4.980;2023-02-14T01:03:27;37.60;;;28.70;;
10383;SDS011;5238;43.508;4.980;2023-02-14T01:05:54;36.83;;;27.63;;
10383;SDS011;5238;43.508;4.980;2023-02-14T01:08:25;37.10;;;27.58;;
10383;SDS011;5238;43.508;4.980;2023-02-14T01:10:52;35.13;;;27.45;;
10383;SDS011;5238;43.508;4.980;2023-02-14T01:13:19;39.47;;;29.70;;
10383;SDS011;5238;43.508;4.980;2023-02-14T01:15:47;36.78;;;27.02;;
10383;SDS011;5238;43.508;4.980;2023-02-14T01:18:19;36.45;;;27.77;;
10383;SDS011;5238;43.508;4.980;2023-02-14T01:20:46;34.40;;;27.20;;
10383;SDS011;5238;43.508;4.980;2023-02-14T01:23:13;37.30;;;27.58;;
10383;SDS011;5238;43.508;4.980;2023-02-14T01:25:41;34.00;;;26.38;;
10383;SDS011;5238;43.508;4.980;2023-02-14T01:28:12;35.45;;;26.10;;
10383;SDS011;5238;43.508;4.980;2023-02-14T01:30:39;37.83;;;27.35;;
10383;SDS011;5238;43.508;4.980;2023-02-14T01:33:08;35.83;;;28.27;;
10383;SDS011;5238;43.508;4.980;2023-02-14T01:35:36;37.22;;;27.17;;
10383;SDS011;5238;43.508;4.980;2023-02-14T01:38:04;36.33;;;27.27;;
10383;SDS011;5238;43.508;4.980;2023-02-14T01:40:31;38.40;;;28.05;;
10383;SDS011;5238;43.508;4.980;2023-02-14T01:43:01;35.25;;;28.20;;
10383;SDS011;5238;43.508;4.980;2023-02-14T01:45:30;34.33;;;27.17;;
10383;SDS011;5238;43.508;4.980;2023-02-14T01:47:57;36.30;;;28.88;;
10383;SDS011;5238;43.508;4.980;2023-02-14T01:50:25;34.78;;;26.15;;
10383;SDS011;5238;43.508;4.980;2023-02-14T01:52:56;34.63;;;26.92;;
10383;SDS011;5238;43.508;4.980;2023-02-14T01:55:26;34.38;;;26.83;;
10383;SDS011;5238;43.508;4.980;2023-02-14T01:57:57;40.67;;;27.88;;
10383;SDS011;5238;43.508;4.980;2023-02-14T02:00:31;35.42;;;27.67;;
10383;SDS011;5238;43.508;4.980;2023-02-14T02:03:19;34.22;;;27.55;;
10383;SDS011;5238;43.508;4.980;2023-02-14T02:05:49;32.30;;;26.38;;
10383;SDS011;5238;43.508;4.980;2023-02-14T02:08:19;34.05;;;26.50;;
10383;SDS011;5238;43.508;4.980;2023-02-14T02:10:46;36.25;;;28.38;;
10383;SDS011;5238;43.508;4.980;2023-02-14T02:13:15;35.22;;;27.58;;
10383;SDS011;5238;43.508;4.980;2023-02-14T02:15:48;37.22;;;27.35;;
10383;SDS011;5238;43.508;4.980;2023-02-14T02:18:23;36.72;;;27.98;;
10383;SDS011;5238;43.508;4.980;2023-02-14T02:24:06;37.28;;;27.25;;
10383;SDS011;5238;43.508;4.980;2023-02-14T02:26:53;38.55;;;28.42;;
10383;SDS011;5238;43.508;4.980;2023-02-14T02:38:54;39.13;;;28.38;;
10383;SDS011;5238;43.508;4.980;2023-02-14T02:41:34;44.85;;;31.33;;
10383;SDS011;5238;43.508;4.980;2023-02-14T02:44:14;38.95;;;28.63;;
10383;SDS011;5238;43.508;4.980;2023-02-14T02:46:45;38.03;;;28.90;;
10383;SDS011;5238;43.508;4.980;2023-02-14T02:52:34;37.60;;;27.55;;
10383;SDS011;5238;43.508;4.980;2023-02-14T02:55:25;41.00;;;30.52;;
10383;SDS011;5238;43.508;4.980;2023-02-14T02:58:16;37.25;;;28.08;;
10383;SDS011;5238;43.508;4.980;2023-02-14T03:00:44;40.70;;;27.58;;
10383;SDS011;5238;43.508;4.980;2023-02-14T03:03:12;37.00;;;29.00;;
10383;SDS011;5238;43.508;4.980;2023-02-14T03:06:06;37.83;;;28.50;;
10383;SDS011;5238;43.508;4.980;2023-02-14T03:08:38;38.42;;;28.38;;
10383;SDS011;5238;43.508;4.980;2023-02-14T03:11:05;35.95;;;27.65;;
10383;SDS011;5238;43.508;4.980;2023-02-14T03:13:38;37.88;;;29.10;;
10383;SDS011;5238;43.508;4.980;2023-02-14T03:16:21;41.90;;;30.25;;
10383;SDS011;5238;43.508;4.980;2023-02-14T03:21:49;43.80;;;30.25;;
10383;SDS011;5238;43.508;4.980;2023-02-14T03:24:24;45.42;;;30.00;;
10383;SDS011;5238;43.508;4.980;2023-02-14T03:26:58;40.03;;;29.33;;
10383;SDS011;5238;43.508;4.980;2023-02-14T03:29:40;37.78;;;29.88;;
10383;SDS011;5238;43.508;4.980;2023-02-14T03:32:19;43.00;;;30.70;;
10383;SDS011;5238;43.508;4.980;2023-02-14T03:34:53;42.50;;;30.98;;
10383;SDS011;5238;43.508;4.980;2023-02-14T03:37:28;43.97;;;31.80;;
10383;SDS011;5238;43.508;4.980;2023-02-14T03:40:02;49.10;;;34.35;;
10383;SDS011;5238;43.508;4.980;2023-02-14T03:42:34;45.25;;;34.30;;
10383;SDS011;5238;43.508;4.980;2023-02-14T03:45:04;45.08;;;31.92;;
10383;SDS011;5238;43.508;4.980;2023-02-14T03:47:39;43.40;;;30.38;;
10383;SDS011;5238;43.508;4.980;2023-02-14T03:50:09;42.80;;;31.02;;
10383;SDS011;5238;43.508;4.980;2023-02-14T03:52:42;42.33;;;31.75;;
10383;SDS011;5238;43.508;4.980;2023-02-14T03:55:13;43.03;;;29.77;;
10383;SDS011;5238;43.508;4.980;2023-02-14T03:57:45;44.50;;;30.95;;
10383;SDS011;5238;43.508;4.980;2023-02-14T04:00:21;44.75;;;31.73;;
10383;SDS011;5238;43.508;4.980;2023-02-14T04:02:49;45.33;;;32.20;;
10383;SDS011;5238;43.508;4.980;2023-02-14T04:05:22;46.58;;;31.13;;
10383;SDS011;5238;43.508;4.980;2023-02-14T04:07:52;45.50;;;30.17;;
10383;SDS011;5238;43.508;4.980;2023-02-14T04:10:22;40.15;;;29.88;;
10383;SDS011;5238;43.508;4.980;2023-02-14T04:12:52;41.45;;;30.75;;
10383;SDS011;5238;43.508;4.980;2023-02-14T04:15:34;39.58;;;29.33;;
10383;SDS011;5238;43.508;4.980;2023-02-14T04:18:02;39.55;;;29.38;;
10383;SDS011;5238;43.508;4.980;2023-02-14T04:20:47;39.35;;;30.65;;
10383;SDS011;5238;43.508;4.980;2023-02-14T04:23:14;40.28;;;29.15;;
10383;SDS011;5238;43.508;4.980;2023-02-14T04:25:43;39.17;;;27.48;;
10383;SDS011;5238;43.508;4.980;2023-02-14T04:28:11;37.25;;;27.08;;
10383;SDS011;5238;43.508;4.980;2023-02-14T04:30:38;38.05;;;28.25;;
10383;SDS011;5238;43.508;4.980;2023-02-14T04:33:05;37.97;;;27.75;;
10383;SDS011;5238;43.508;4.980;2023-02-14T04:35:33;39.22;;;28.65;;
10383;SDS011;5238;43.508;4.980;2023-02-14T04:38:02;34.97;;;27.33;;
10383;SDS011;5238;43.508;4.980;2023-02-14T04:40:30;37.20;;;27.00;;
10383;SDS011;5238;43.508;4.980;2023-02-14T04:43:00;41.90;;;30.15;;
10383;SDS011;5238;43.508;4.980;2023-02-14T04:45:28;39.65;;;28.73;;
10383;SDS011;5238;43.508;4.980;2023-02-14T04:47:57;40.55;;;27.95;;
10383;SDS011;5238;43.508;4.980;2023-02-14T04:50:24;38.13;;;27.42;;
10383;SDS011;5238;43.508;4.980;2023-02-14T04:52:52;43.30;;;29.15;;
10383;SDS011;5238;43.508;4.980;2023-02-14T04:55:19;36.90;;;27.08;;
10383;SDS011;5238;43.508;4.980;2023-02-14T04:57:47;37.15;;;26.27;;
10383;SDS011;5238;43.508;4.980;2023-02-14T05:00:16;36.28;;;27.90;;
10383;SDS011;5238;43.508;4.980;2023-02-14T05:02:50;36.55;;;27.50;;
10383;SDS011;5238;43.508;4.980;2023-02-14T05:05:17;38.17;;;26.27;;
10383;SDS011;5238;43.508;4.980;2023-02-14T05:07:44;36.25;;;26.63;;
10383;SDS011;5238;43.508;4.980;2023-02-14T05:10:12;36.25;;;26.65;;
10383;SDS011;5238;43.508;4.980;2023-02-14T05:12:39;37.80;;;27.85;;
10383;SDS011;5238;43.508;4.980;2023-02-14T05:15:07;39.38;;;24.60;;
10383;SDS011;5238;43.508;4.980;2023-02-14T05:17:36;31.10;;;24.73;;
10383;SDS011;5238;43.508;4.980;2023-02-14T05:20:03;33.95;;;25.13;;
10383;SDS011;5238;43.508;4.980;2023-02-14T05:22:31;36.13;;;27.50;;
10383;SDS011;5238;43.508;4.980;2023-02-14T05:24:58;37.53;;;25.75;;
10383;SDS011;5238;43.508;4.980;2023-02-14T05:27:27;36.45;;;26.20;;
10383;SDS011;5238;43.508;4.980;2023-02-14T05:29:54;36.35;;;26.77;;
10383;SDS011;5238;43.508;4.980;2023-02-14T05:32:21;35.65;;;25.52;;
10383;SDS011;5238;43.508;4.980;2023-02-14T05:34:49;37.22;;;28.02;;
10383;SDS011;5238;43.508;4.980;2023-02-14T05:37:20;37.38;;;27.83;;
10383;SDS011;5238;43.508;4.980;2023-02-14T05:39:48;36.55;;;25.88;;
10383;SDS011;5238;43.508;4.980;2023-02-14T05:42:16;34.10;;;24.70;;
10383;SDS011;5238;43.508;4.980;2023-02-14T05:44:43;32.50;;;23.95;;
10383;SDS011;5238;43.508;4.980;2023-02-14T05:47:11;35.25;;;26.52;;
10383;SDS011;5238;43.508;4.980;2023-02-14T05:49:41;33.75;;;24.23;;
10383;SDS011;5238;43.508;4.980;2023-02-14T05:52:10;33.05;;;24.95;;
10383;SDS011;5238;43.508;4.980;2023-02-14T05:54:37;35.80;;;25.88;;
10383;SDS011;5238;43.508;4.980;2023-02-14T05:57:03;33.10;;;24.63;;
10383;SDS011;5238;43.508;4.980;2023-02-14T05:59:31;36.38;;;25.92;;
10383;SDS011;5238;43.508;4.980;2023-02-14T06:01:58;36.88;;;25.88;;
10383;SDS011;5238;43.508;4.980;2023-02-14T06:04:25;34.83;;;25.00;;
10383;SDS011;5238;43.508;4.980;2023-02-14T06:06:52;32.72;;;25.33;;
10383;SDS011;5238;43.508;4.980;2023-02-14T06:09:20;35.30;;;25.67;;
10383;SDS011;5238;43.508;4.980;2023-02-14T06:11:47;34.60;;;25.92;;
10383;SDS011;5238;43.508;4.980;2023-02-14T06:14:14;34.50;;;25.50;;
10383;SDS011;5238;43.508;4.980;2023-02-14T06:16:41;36.35;;;24.67;;
10383;SDS011;5238;43.508;4.980;2023-02-14T06:19:10;31.10;;;23.48;;
10383;SDS011;5238;43.508;4.980;2023-02-14T06:21:37;33.03;;;25.20;;
10383;SDS011;5238;43.508;4.980;2023-02-14T06:24:04;36.08;;;25.45;;
10383;SDS011;5238;43.508;4.980;2023-02-14T06:26:33;38.47;;;27.48;;
10383;SDS011;5238;43.508;4.980;2023-02-14T06:29:01;36.88;;;27.73;;
10383;SDS011;5238;43.508;4.980;2023-02-14T06:31:28;37.88;;;26.80;;
10383;SDS011;5238;43.508;4.980;2023-02-14T06:33:56;39.58;;;26.33;;
10383;SDS011;5238;43.508;4.980;2023-02-14T06:36:23;39.45;;;26.70;;
10383;SDS011;5238;43.508;4.980;2023-02-14T06:38:51;36.38;;;26.35;;
10383;SDS011;5238;43.508;4.980;2023-02-14T06:41:18;35.90;;;28.35;;
10383;SDS011;5238;43.508;4.980;2023-02-14T06:43:50;39.85;;;28.85;;
10383;SDS011;5238;43.508;4.980;2023-02-14T06:46:18;36.85;;;27.88;;
10383;SDS011;5238;43.508;4.980;2023-02-14T06:48:46;40.85;;;28.60;;
10383;SDS011;5238;43.508;4.980;2023-02-14T06:51:13;37.03;;;28.30;;
10383;SDS011;5238;43.508;4.980;2023-02-14T06:53:41;38.60;;;27.15;;
10383;SDS011;5238;43.508;4.980;2023-02-14T06:56:08;43.05;;;29.25;;
10383;SDS011;5238;43.508;4.980;2023-02-14T06:58:35;37.33;;;26.98;;
10383;SDS011;5238;43.508;4.980;2023-02-14T07:01:07;37.67;;;26.50;;
10383;SDS011;5238;43.508;4.980;2023-02-14T07:03:36;33.97;;;26.02;;
10383;SDS011;5238;43.508;4.980;2023-02-14T07:06:03;34.00;;;26.60;;
10383;SDS011;5238;43.508;4.980;2023-02-14T07:08:31;37.97;;;26.30;;
10383;SDS011;5238;43.508;4.980;2023-02-14T07:10:59;39.33;;;25.38;;
10383;SDS011;5238;43.508;4.980;2023-02-14T07:13:26;39.30;;;26.42;;
10383;SDS011;5238;43.508;4.980;2023-02-14T07:15:56;32.47;;;25.92;;
10383;SDS011;5238;43.508;4.980;2023-02-14T07:18:24;30.33;;;23.77;;
10383;SDS011;5238;43.508;4.980;2023-02-14T07:20:52;35.40;;;25.00;;
10383;SDS011;5238;43.508;4.980;2023-02-14T07:23:19;34.08;;;25.10;;
10383;SDS011;5238;43.508;4.980;2023-02-14T07:25:46;30.65;;;25.33;;
10383;SDS011;5238;43.508;4.980;2023-02-14T07:28:13;32.67;;;25.23;;
10383;SDS011;5238;43.508;4.980;2023-02-14T07:30:40;35.17;;;24.95;;
10383;SDS011;5238;43.508;4.980;2023-02-14T07:33:09;72.93;;;24.58;;
10383;SDS011;5238;43.508;4.980;2023-02-14T07:35:38;51.95;;;32.80;;
10383;SDS011;5238;43.508;4.980;2023-02-14T07:38:05;43.08;;;30.25;;
10383;SDS011;5238;43.508;4.980;2023-02-14T07:40:32;42.38;;;30.13;;
10383;SDS011;5238;43.508;4.980;2023-02-14T07:42:59;31.85;;;22.42;;
10383;SDS011;5238;43.508;4.980;2023-02-14T07:45:26;30.52;;;20.80;;
10383;SDS011;5238;43.508;4.980;2023-02-14T07:47:53;29.38;;;19.25;;
10383;SDS011;5238;43.508;4.980;2023-02-14T07:50:29;27.83;;;18.05;;
10383;SDS011;5238;43.508;4.980;2023-02-14T07:52:57;31.35;;;17.35;;
10383;SDS011;5238;43.508;4.980;2023-02-14T07:55:24;22.90;;;17.75;;
10383;SDS011;5238;43.508;4.980;2023-02-14T07:57:51;23.80;;;17.50;;
10383;SDS011;5238;43.508;4.980;2023-02-14T08:00:18;21.42;;;18.70;;
10383;SDS011;5238;43.508;4.980;2023-02-14T08:02:46;21.92;;;18.83;;
10383;SDS011;5238;43.508;4.980;2023-02-14T08:05:13;24.55;;;18.33;;
10383;SDS011;5238;43.508;4.980;2023-02-14T08:07:42;34.88;;;16.33;;
10383;SDS011;5238;43.508;4.980;2023-02-14T08:10:12;57.40;;;20.63;;
10383;SDS011;5238;43.508;4.980;2023-02-14T08:12:51;29.02;;;18.63;;
10383;SDS011;5238;43.508;4.980;2023-02-14T08:15:24;128.68;;;26.17;;
10383;SDS011;5238;43.508;4.980;2023-02-14T08:18:11;21.40;;;17.63;;
10383;SDS011;5238;43.508;4.980;2023-02-14T08:20:38;21.38;;;16.90;;
10383;SDS011;5238;43.508;4.980;2023-02-14T08:23:08;19.65;;;17.45;;
10383;SDS011;5238;43.508;4.980;2023-02-14T08:25:41;20.52;;;17.48;;
10383;SDS011;5238;43.508;4.980;2023-02-14T08:28:08;20.58;;;18.38;;
10383;SDS011;5238;43.508;4.980;2023-02-14T08:30:35;25.05;;;21.80;;
10383;SDS011;5238;43.508;4.980;2023-02-14T08:33:03;22.77;;;17.98;;
10383;SDS011;5238;43.508;4.980;2023-02-14T08:35:33;22.85;;;18.83;;
10383;SDS011;5238;43.508;4.980;2023-02-14T08:38:01;24.20;;;18.67;;
10383;SDS011;5238;43.508;4.980;2023-02-14T08:40:29;25.02;;;22.15;;
10383;SDS011;5238;43.508;4.980;2023-02-14T08:42:58;25.45;;;20.67;;
10383;SDS011;5238;43.508;4.980;2023-02-14T08:45:25;25.17;;;20.73;;
10383;SDS011;5238;43.508;4.980;2023-02-14T08:47:52;23.70;;;21.20;;
10383;SDS011;5238;43.508;4.980;2023-02-14T08:50:19;26.67;;;23.90;;
10383;SDS011;5238;43.508;4.980;2023-02-14T08:52:46;24.27;;;21.58;;
10383;SDS011;5238;43.508;4.980;2023-02-14T08:55:13;25.65;;;22.92;;
10383;SDS011;5238;43.508;4.980;2023-02-14T08:57:43;26.48;;;23.65;;
10383;SDS011;5238;43.508;4.980;2023-02-14T09:00:12;29.25;;;22.95;;
10383;SDS011;5238;43.508;4.980;2023-02-14T09:02:39;25.42;;;21.55;;
10383;SDS011;5238;43.508;4.980;2023-02-14T09:05:07;25.42;;;21.30;;
10383;SDS011;5238;43.508;4.980;2023-02-14T09:07:34;27.38;;;24.67;;
10383;SDS011;5238;43.508;4.980;2023-02-14T09:10:02;24.75;;;21.60;;
10383;SDS011;5238;43.508;4.980;2023-02-14T09:12:30;24.25;;;21.10;;
10383;SDS011;5238;43.508;4.980;2023-02-14T09:14:57;25.55;;;21.88;;
10383;SDS011;5238;43.508;4.980;2023-02-14T09:17:26;24.83;;;22.15;;
10383;SDS011;5238;43.508;4.980;2023-02-14T09:19:54;24.88;;;19.85;;
10383;SDS011;5238;43.508;4.980;2023-02-14T09:22:23;24.05;;;20.35;;
10383;SDS011;5238;43.508;4.980;2023-02-14T09:24:50;23.02;;;19.60;;
10383;SDS011;5238;43.508;4.980;2023-02-14T09:27:19;23.80;;;21.23;;
10383;SDS011;5238;43.508;4.980;2023-02-14T09:29:46;25.23;;;22.67;;
10383;SDS011;5238;43.508;4.980;2023-02-14T09:32:14;22.63;;;19.17;;
10383;SDS011;5238;43.508;4.980;2023-02-14T09:34:42;23.27;;;18.65;;
10383;SDS011;5238;43.508;4.980;2023-02-14T09:37:12;22.27;;;19.88;;
10383;SDS011;5238;43.508;4.980;2023-02-14T09:39:57;22.23;;;18.83;;
10383;SDS011;5238;43.508;4.980;2023-02-14T09:45:23;25.17;;;19.83;;
10383;SDS011;5238;43.508;4.980;2023-02-14T09:47:55;23.02;;;20.40;;
10383;SDS011;5238;43.508;4.980;2023-02-14T09:50:28;27.63;;;24.95;;
10383;SDS011;5238;43.508;4.980;2023-02-14T09:53:01;28.30;;;25.50;;
10383;SDS011;5238;43.508;4.980;2023-02-14T09:55:33;26.30;;;23.60;;
10383;SDS011;5238;43.508;4.980;2023-02-14T09:58:06;28.33;;;24.55;;
10383;SDS011;5238;43.508;4.980;2023-02-14T10:00:43;26.77;;;22.50;;
10383;SDS011;5238;43.508;4.980;2023-02-14T10:06:08;27.85;;;22.45;;
10383;SDS011;5238;43.508;4.980;2023-02-14T10:08:44;28.70;;;25.25;;
10383;SDS011;5238;43.508;4.980;2023-02-14T10:11:18;28.15;;;23.25;;
10383;SDS011;5238;43.508;4.980;2023-02-14T10:13:49;30.77;;;25.40;;
10383;SDS011;5238;43.508;4.980;2023-02-14T10:16:21;29.83;;;26.63;;
10383;SDS011;5238;43.508;4.980;2023-02-14T10:18:56;31.60;;;28.27;;
10383;SDS011;5238;43.508;4.980;2023-02-14T10:21:33;30.02;;;26.83;;
10383;SDS011;5238;43.508;4.980;2023-02-14T10:24:08;32.70;;;26.42;;
10383;SDS011;5238;43.508;4.980;2023-02-14T10:26:40;31.38;;;26.92;;
10383;SDS011;5238;43.508;4.980;2023-02-14T10:29:11;120.60;;;30.98;;
10383;SDS011;5238;43.508;4.980;2023-02-14T10:31:40;51.80;;;30.15;;
10383;SDS011;5238;43.508;4.980;2023-02-14T10:34:20;30.90;;;27.60;;
10383;SDS011;5238;43.508;4.980;2023-02-14T10:37:01;55.55;;;29.50;;
10383;SDS011;5238;43.508;4.980;2023-02-14T10:39:58;47.55;;;26.08;;
10383;SDS011;5238;43.508;4.980;2023-02-14T10:42:52;28.15;;;22.65;;
10383;SDS011;5238;43.508;4.980;2023-02-14T10:45:27;26.38;;;23.70;;
10383;SDS011;5238;43.508;4.980;2023-02-14T10:48:04;29.25;;;24.42;;
10383;SDS011;5238;43.508;4.980;2023-02-14T10:50:43;26.75;;;23.13;;
10383;SDS011;5238;43.508;4.980;2023-02-14T10:53:20;25.23;;;21.27;;
10383;SDS011;5238;43.508;4.980;2023-02-14T10:55:54;22.50;;;20.10;;
10383;SDS011;5238;43.508;4.980;2023-02-14T10:58:30;25.48;;;21.10;;
10383;SDS011;5238;43.508;4.980;2023-02-14T11:01:02;24.60;;;21.27;;
10383;SDS011;5238;43.508;4.980;2023-02-14T11:03:33;26.63;;;22.65;;
10383;SDS011;5238;43.508;4.980;2023-02-14T11:06:06;21.33;;;18.85;;
10383;SDS011;5238;43.508;4.980;2023-02-14T11:08:44;19.17;;;15.48;;
10383;SDS011;5238;43.508;4.980;2023-02-14T11:11:15;24.52;;;20.77;;
10383;SDS011;5238;43.508;4.980;2023-02-14T11:13:52;22.88;;;18.13;;
10383;SDS011;5238;43.508;4.980;2023-02-14T11:16:28;22.58;;;20.17;;
10383;SDS011;5238;43.508;4.980;2023-02-14T11:19:06;24.30;;;21.17;;
10383;SDS011;5238;43.508;4.980;2023-02-14T11:21:37;26.15;;;22.63;;
10383;SDS011;5238;43.508;4.980;2023-02-14T11:27:01;22.23;;;19.88;;
10383;SDS011;5238;43.508;4.980;2023-02-14T11:29:32;20.00;;;17.90;;
10383;SDS011;5238;43.508;4.980;2023-02-14T11:32:12;20.55;;;17.70;;
10383;SDS011;5238;43.508;4.980;2023-02-14T11:34:43;19.42;;;16.60;;
10383;SDS011;5238;43.508;4.980;2023-02-14T11:37:15;17.73;;;15.55;;
10383;SDS011;5238;43.508;4.980;2023-02-14T11:39:52;17.17;;;15.05;;
10383;SDS011;5238;43.508;4.980;2023-02-14T11:42:33;21.23;;;19.05;;
10383;SDS011;5238;43.508;4.980;2023-02-14T11:48:05;20.58;;;18.42;;
10383;SDS011;5238;43.508;4.980;2023-02-14T11:50:39;20.65;;;18.55;;
10383;SDS011;5238;43.508;4.980;2023-02-14T11:53:09;21.13;;;18.30;;
10383;SDS011;5238;43.508;4.980;2023-02-14T11:55:38;22.67;;;18.50;;
10383;SDS011;5238;43.508;4.980;2023-02-14T11:58:30;18.95;;;16.92;;
10383;SDS011;5238;43.508;4.980;2023-02-14T12:01:03;18.55;;;16.73;;
10383;SDS011;5238;43.508;4.980;2023-02-14T12:03:33;19.63;;;16.08;;
10383;SDS011;5238;43.508;4.980;2023-02-14T12:06:10;18.23;;;15.63;;
10383;SDS011;5238;43.508;4.980;2023-02-14T12:08:38;21.92;;;16.35;;
10383;SDS011;5238;43.508;4.980;2023-02-14T12:11:16;16.65;;;14.98;;
10383;SDS011;5238;43.508;4.980;2023-02-14T12:13:53;16.70;;;14.95;;
10383;SDS011;5238;43.508;4.980;2023-02-14T12:16:27;20.40;;;16.02;;
10383;SDS011;5238;43.508;4.980;2023-02-14T12:19:04;19.63;;;16.42;;
10383;SDS011;5238;43.508;4.980;2023-02-14T12:21:40;16.50;;;14.55;;
10383;SDS011;5238;43.508;4.980;2023-02-14T12:24:15;16.30;;;13.40;;
10383;SDS011;5238;43.508;4.980;2023-02-14T12:26:49;15.82;;;14.23;;
10383;SDS011;5238;43.508;4.980;2023-02-14T12:29:24;16.80;;;15.05;;
10383;SDS011;5238;43.508;4.980;2023-02-14T12:32:00;16.45;;;14.70;;
10383;SDS011;5238;43.508;4.980;2023-02-14T12:34:32;17.40;;;15.13;;
10383;SDS011;5238;43.508;4.980;2023-02-14T12:37:11;18.42;;;16.50;;
10383;SDS011;5238;43.508;4.980;2023-02-14T12:39:47;18.20;;;15.27;;
10383;SDS011;5238;43.508;4.980;2023-02-14T12:42:33;19.65;;;15.85;;
10383;SDS011;5238;43.508;4.980;2023-02-14T12:45:16;24.55;;;14.52;;
10383;SDS011;5238;43.508;4.980;2023-02-14T12:47:54;58.45;;;17.95;;
10383;SDS011;5238;43.508;4.980;2023-02-14T12:50:32;15.88;;;14.07;;
10383;SDS011;5238;43.508;4.980;2023-02-14T12:56:11;17.40;;;13.73;;
10383;SDS011;5238;43.508;4.980;2023-02-14T12:58:49;15.50;;;13.20;;
10383;SDS011;5238;43.508;4.980;2023-02-14T13:04:57;13.55;;;11.82;;
10383;SDS011;5238;43.508;4.980;2023-02-14T13:07:45;13.80;;;11.77;;
10383;SDS011;5238;43.508;4.980;2023-02-14T13:10:28;17.27;;;12.75;;
10383;SDS011;5238;43.508;4.980;2023-02-14T13:13:06;11.85;;;10.63;;
10383;SDS011;5238;43.508;4.980;2023-02-14T13:15:44;12.32;;;10.60;;
10383;SDS011;5238;43.508;4.980;2023-02-14T13:18:20;13.05;;;10.35;;
10383;SDS011;5238;43.508;4.980;2023-02-14T13:21:00;12.10;;;9.48;;
10383;SDS011;5238;43.508;4.980;2023-02-14T13:23:32;12.07;;;9.95;;
10383;SDS011;5238;43.508;4.980;2023-02-14T13:26:05;11.02;;;10.02;;
10383;SDS011;5238;43.508;4.980;2023-02-14T13:28:37;12.40;;;9.43;;
10383;SDS011;5238;43.508;4.980;2023-02-14T13:31:17;12.30;;;9.45;;
10383;SDS011;5238;43.508;4.980;2023-02-14T13:33:47;16.63;;;10.52;;
10383;SDS011;5238;43.508;4.980;2023-02-14T13:36:22;13.10;;;9.80;;
10383;SDS011;5238;43.508;4.980;2023-02-14T13:38:51;10.27;;;9.18;;
10383;SDS011;5238;43.508;4.980;2023-02-14T13:41:19;10.32;;;9.30;;
10383;SDS011;5238;43.508;4.980;2023-02-14T13:43:51;10.15;;;9.13;;
10383;SDS011;5238;43.508;4.980;2023-02-14T13:46:21;12.93;;;10.98;;
10383;SDS011;5238;43.508;4.980;2023-02-14T13:49:20;11.02;;;9.93;;
10383;SDS011;5238;43.508;4.980;2023-02-14T13:51:57;11.25;;;10.05;;
10383;SDS011;5238;43.508;4.980;2023-02-14T13:54:28;12.77;;;8.48;;
10383;SDS011;5238;43.508;4.980;2023-02-14T13:56:58;10.00;;;9.00;;
10383;SDS011;5238;43.508;4.980;2023-02-14T13:59:27;12.32;;;9.27;;
10383;SDS011;5238;43.508;4.980;2023-02-14T14:01:58;11.52;;;10.27;;
10383;SDS011;5238;43.508;4.980;2023-02-14T14:08:29;13.38;;;9.20;;
10383;SDS011;5238;43.508;4.980;2023-02-14T14:11:11;10.60;;;9.57;;
10383;SDS011;5238;43.508;4.980;2023-02-14T14:14:01;10.32;;;8.88;;
10383;SDS011;5238;43.508;4.980;2023-02-14T14:16:55;10.48;;;9.35;;
10383;SDS011;5238;43.508;4.980;2023-02-14T14:19:35;11.50;;;9.95;;
10383;SDS011;5238;43.508;4.980;2023-02-14T14:22:15;9.98;;;9.00;;
10383;SDS011;5238;43.508;4.980;2023-02-14T14:24:51;13.35;;;9.77;;
10383;SDS011;5238;43.508;4.980;2023-02-14T14:27:24;11.75;;;10.43;;
10383;SDS011;5238;43.508;4.980;2023-02-14T14:29:57;11.57;;;9.35;;
10383;SDS011;5238;43.508;4.980;2023-02-14T14:32:46;14.70;;;10.63;;
10383;SDS011;5238;43.508;4.980;2023-02-14T14:35:16;11.48;;;10.32;;
10383;SDS011;5238;43.508;4.980;2023-02-14T14:37:47;51.40;;;13.80;;
10383;SDS011;5238;43.508;4.980;2023-02-14T14:40:18;17.75;;;10.07;;
10383;SDS011;5238;43.508;4.980;2023-02-14T14:42:51;11.32;;;9.95;;
10383;SDS011;5238;43.508;4.980;2023-02-14T14:45:28;14.27;;;10.95;;
10383;SDS011;5238;43.508;4.980;2023-02-14T14:47:57;11.52;;;9.95;;
10383;SDS011;5238;43.508;4.980;2023-02-14T14:50:26;11.45;;;10.35;;
10383;SDS011;5238;43.508;4.980;2023-02-14T14:52:58;11.98;;;10.30;;
10383;SDS011;5238;43.508;4.980;2023-02-14T14:55:31;16.05;;;12.75;;
10383;SDS011;5238;43.508;4.980;2023-02-14T14:58:05;13.75;;;11.60;;
10383;SDS011;5238;43.508;4.980;2023-02-14T15:00:37;10.90;;;9.80;;
10383;SDS011;5238;43.508;4.980;2023-02-14T15:03:12;10.70;;;9.45;;
10383;SDS011;5238;43.508;4.980;2023-02-14T15:05:46;11.80;;;9.57;;
10383;SDS011;5238;43.508;4.980;2023-02-14T15:08:21;10.88;;;9.50;;
10383;SDS011;5238;43.508;4.980;2023-02-14T15:10:57;14.32;;;10.25;;
10383;SDS011;5238;43.508;4.980;2023-02-14T15:13:29;11.77;;;9.77;;
10383;SDS011;5238;43.508;4.980;2023-02-14T15:16:15;15.95;;;13.15;;
10383;SDS011;5238;43.508;4.980;2023-02-14T15:18:53;14.30;;;10.55;;
10383;SDS011;5238;43.508;4.980;2023-02-14T15:21:22;11.80;;;9.43;;
10383;SDS011;5238;43.508;4.980;2023-02-14T15:23:51;8.70;;;7.80;;
10383;SDS011;5238;43.508;4.980;2023-02-14T15:26:24;9.07;;;7.32;;
10383;SDS011;5238;43.508;4.980;2023-02-14T15:28:56;17.88;;;8.15;;
10383;SDS011;5238;43.508;4.980;2023-02-14T15:31:28;11.75;;;7.07;;
10383;SDS011;5238;43.508;4.980;2023-02-14T15:33:57;15.90;;;8.80;;
10383;SDS011;5238;43.508;4.980;2023-02-14T15:36:28;9.40;;;5.90;;
10383;SDS011;5238;43.508;4.980;2023-02-14T15:39:00;6.90;;;6.10;;
10383;SDS011;5238;43.508;4.980;2023-02-14T15:41:30;5.68;;;5.00;;
10383;SDS011;5238;43.508;4.980;2023-02-14T15:43:59;16.58;;;6.40;;